sensor_id;sensor_type;location;lat;lon;timestamp;pressure;altitude;pressure_sealevel;temperature;humidity
41467;BME280;27205;53.690;19.948;2023-03-13T00:01:44;99239.39;;;1.54;57.95
41467;BME280;27205;53.690;19.948;2023-03-13T00:06:47;99246.14;;;1.51;57.84
41467;BME280;27205;53.690;19.948;2023-03-13T00:11:51;99242.14;;;1.53;57.90
41467;BME280;27205;53.690;19.948;2023-03-13T00:16:56;99238.21;;;1.57;57.83
41467;BME280;27205;53.690;19.948;2023-03-13T00:21:59;99234.02;;;1.67;57.98
41467;BME280;27205;53.690;19.948;2023-03-13T00:27:03;99220.36;;;1.78;58.32
41467;BME280;27205;53.690;19.948;2023-03-13T00:32:07;99214.34;;;1.91;58.50
41467;BME280;27205;53.690;19.948;2023-03-13T00:37:11;99207.26;;;2.03;58.43
41467;BME280;27205;53.690;19.948;2023-03-13T00:42:14;99194.52;;;2.12;58.37
41467;BME280;27205;53.690;19.948;2023-03-13T00:47:18;99187.30;;;2.25;58.93
41467;BME280;27205;53.690;19.948;2023-03-13T00:52:21;99180.30;;;2.41;58.92
41467;BME280;27205;53.690;19.948;2023-03-13T00:57:26;99178.23;;;2.56;58.94
41467;BME280;27205;53.690;19.948;2023-03-13T01:02:29;99170.34;;;2.65;58.97
41467;BME280;27205;53.690;19.948;2023-03-13T01:07:33;99169.47;;;2.68;59.02
41467;BME280;27205;53.690;19.948;2023-03-13T01:12:36;99158.20;;;2.58;58.98
41467;BME280;27205;53.690;19.948;2023-03-13T01:17:42;99148.48;;;2.54;59.09
41467;BME280;27205;53.690;19.948;2023-03-13T01:22:46;99128.29;;;2.47;59.10
41467;BME280;27205;53.690;19.948;2023-03-13T01:27:50;99115.09;;;2.31;59.12
41467;BME280;27205;53.690;19.948;2023-03-13T01:32:53;99108.86;;;2.19;59.21
41467;BME280;27205;53.690;19.948;2023-03-13T01:37:56;99091.35;;;2.05;59.42
41467;BME280;27205;53.690;19.948;2023-03-13T01:43:15;99096.04;;;1.94;59.40
41467;BME280;27205;53.690;19.948;2023-03-13T01:48:58;99099.98;;;1.85;59.10
41467;BME280;27205;53.690;19.948;2023-03-13T01:59:08;99111.67;;;1.79;59.52
41467;BME280;27205;53.690;19.948;2023-03-13T02:04:14;99101.69;;;1.84;59.63
41467;BME280;27205;53.690;19.948;2023-03-13T02:09:22;99101.65;;;1.91;59.73
41467;BME280;27205;53.690;19.948;2023-03-13T02:14:30;99095.98;;;1.99;59.96
41467;BME280;27205;53.690;19.948;2023-03-13T02:19:47;99088.95;;;2.13;60.23
41467;BME280;27205;53.690;19.948;2023-03-13T02:30:14;99048.75;;;2.25;60.33
41467;BME280;27205;53.690;19.948;2023-03-13T02:35:20;99044.54;;;2.29;60.36
41467;BME280;27205;53.690;19.948;2023-03-13T02:40:27;99040.80;;;2.32;60.52
41467;BME280;27205;53.690;19.948;2023-03-13T02:45:31;99037.67;;;2.35;60.39
41467;BME280;27205;53.690;19.948;2023-03-13T02:50:35;99034.52;;;2.36;60.86
41467;BME280;27205;53.690;19.948;2023-03-13T02:55:40;99027.81;;;2.35;60.95
41467;BME280;27205;53.690;19.948;2023-03-13T03:00:44;99032.34;;;2.34;61.02
41467;BME280;27205;53.690;19.948;2023-03-13T03:05:47;99041.55;;;2.35;61.24
41467;BME280;27205;53.690;19.948;2023-03-13T03:10:51;99049.62;;;2.35;61.40
41467;BME280;27205;53.690;19.948;2023-03-13T03:15:54;99056.02;;;2.41;61.39
41467;BME280;27205;53.690;19.948;2023-03-13T03:20:58;99056.45;;;2.50;61.46
41467;BME280;27205;53.690;19.948;2023-03-13T03:26:05;99056.88;;;2.57;61.56
41467;BME280;27205;53.690;19.948;2023-03-13T03:31:11;99057.38;;;2.64;61.51
41467;BME280;27205;53.690;19.948;2023-03-13T03:36:17;99055.40;;;2.72;61.97
41467;BME280;27205;53.690;19.948;2023-03-13T03:41:22;99059.85;;;2.81;62.02
41467;BME280;27205;53.690;19.948;2023-03-13T03:46:25;99061.23;;;2.88;62.10
41467;BME280;27205;53.690;19.948;2023-03-13T03:51:29;99042.87;;;2.93;62.15
41467;BME280;27205;53.690;19.948;2023-03-13T03:56:32;99032.30;;;3.00;62.57
41467;BME280;27205;53.690;19.948;2023-03-13T04:01:35;99034.00;;;3.16;62.42
41467;BME280;27205;53.690;19.948;2023-03-13T04:06:39;99032.84;;;3.20;62.78
41467;BME280;27205;53.690;19.948;2023-03-13T04:11:43;99036.30;;;3.28;63.01
41467;BME280;27205;53.690;19.948;2023-03-13T04:16:46;99028.30;;;3.38;63.18
41467;BME280;27205;53.690;19.948;2023-03-13T04:21:50;99015.44;;;3.47;63.35
41467;BME280;27205;53.690;19.948;2023-03-13T04:26:53;99004.62;;;3.54;63.28
41467;BME280;27205;53.690;19.948;2023-03-13T04:31:57;99000.83;;;3.60;63.46
41467;BME280;27205;53.690;19.948;2023-03-13T04:37:01;99002.03;;;3.65;63.76
41467;BME280;27205;53.690;19.948;2023-03-13T04:42:04;98993.38;;;3.70;63.55
41467;BME280;27205;53.690;19.948;2023-03-13T04:47:08;98981.91;;;3.72;64.16
41467;BME280;27205;53.690;19.948;2023-03-13T04:52:11;98979.64;;;3.75;64.31
41467;BME280;27205;53.690;19.948;2023-03-13T04:57:15;98972.98;;;3.80;64.05
41467;BME280;27205;53.690;19.948;2023-03-13T05:02:19;98975.50;;;3.79;64.43
41467;BME280;27205;53.690;19.948;2023-03-13T05:07:23;98959.94;;;3.83;64.85
41467;BME280;27205;53.690;19.948;2023-03-13T05:12:26;98957.59;;;3.91;64.94
41467;BME280;27205;53.690;19.948;2023-03-13T05:17:30;98953.81;;;3.96;64.90
41467;BME280;27205;53.690;19.948;2023-03-13T05:22:34;98946.96;;;4.02;64.98
41467;BME280;27205;53.690;19.948;2023-03-13T05:27:37;98949.74;;;4.08;65.10
41467;BME280;27205;53.690;19.948;2023-03-13T05:32:41;98940.31;;;4.14;65.29
41467;BME280;27205;53.690;19.948;2023-03-13T05:37:44;98931.41;;;4.18;65.48
41467;BME280;27205;53.690;19.948;2023-03-13T05:42:48;98920.20;;;4.24;65.51
41467;BME280;27205;53.690;19.948;2023-03-13T05:47:51;98916.66;;;4.27;65.79
41467;BME280;27205;53.690;19.948;2023-03-13T05:52:55;98919.37;;;4.30;65.86
41467;BME280;27205;53.690;19.948;2023-03-13T05:57:58;98914.95;;;4.31;66.30
41467;BME280;27205;53.690;19.948;2023-03-13T06:03:02;98912.01;;;4.34;66.77
41467;BME280;27205;53.690;19.948;2023-03-13T06:08:05;98906.78;;;4.38;66.69
41467;BME280;27205;53.690;19.948;2023-03-13T06:13:09;98897.66;;;4.42;66.85
41467;BME280;27205;53.690;19.948;2023-03-13T06:18:22;98900.66;;;4.50;66.94
41467;BME280;27205;53.690;19.948;2023-03-13T06:23:26;98897.66;;;4.60;67.19
41467;BME280;27205;53.690;19.948;2023-03-13T06:28:30;98882.94;;;4.69;67.23
41467;BME280;27205;53.690;19.948;2023-03-13T06:33:33;98872.54;;;4.75;67.23
41467;BME280;27205;53.690;19.948;2023-03-13T06:38:37;98869.52;;;4.88;67.60
41467;BME280;27205;53.690;19.948;2023-03-13T06:43:40;98870.30;;;4.90;67.98
41467;BME280;27205;53.690;19.948;2023-03-13T06:48:44;98876.00;;;4.95;67.73
41467;BME280;27205;53.690;19.948;2023-03-13T06:53:48;98871.58;;;5.12;67.76
41467;BME280;27205;53.690;19.948;2023-03-13T06:58:51;98859.51;;;5.38;67.60
41467;BME280;27205;53.690;19.948;2023-03-13T07:03:55;98849.40;;;5.57;67.76
41467;BME280;27205;53.690;19.948;2023-03-13T07:08:59;98848.43;;;5.66;67.80
41467;BME280;27205;53.690;19.948;2023-03-13T07:14:02;98837.63;;;5.73;67.98
41467;BME280;27205;53.690;19.948;2023-03-13T07:19:19;98831.30;;;5.80;68.10
41467;BME280;27205;53.690;19.948;2023-03-13T07:24:22;98834.96;;;5.92;68.39
41467;BME280;27205;53.690;19.948;2023-03-13T07:29:26;98831.07;;;5.98;68.48
41467;BME280;27205;53.690;19.948;2023-03-13T07:34:30;98824.02;;;6.05;68.74
41467;BME280;27205;53.690;19.948;2023-03-13T07:39:33;98823.11;;;6.20;68.69
41467;BME280;27205;53.690;19.948;2023-03-13T07:44:37;98822.57;;;6.25;68.70
41467;BME280;27205;53.690;19.948;2023-03-13T07:49:40;98820.52;;;6.31;68.66
41467;BME280;27205;53.690;19.948;2023-03-13T07:54:46;98813.77;;;6.35;68.91
41467;BME280;27205;53.690;19.948;2023-03-13T07:59:49;98807.71;;;6.36;69.19
41467;BME280;27205;53.690;19.948;2023-03-13T08:04:53;98802.19;;;6.46;69.22
41467;BME280;27205;53.690;19.948;2023-03-13T08:09:59;98795.41;;;6.52;69.27
41467;BME280;27205;53.690;19.948;2023-03-13T08:15:03;98790.38;;;6.61;69.37
41467;BME280;27205;53.690;19.948;2023-03-13T08:20:07;98780.91;;;6.71;69.36
41467;BME280;27205;53.690;19.948;2023-03-13T08:25:13;98776.14;;;6.74;69.67
41467;BME280;27205;53.690;19.948;2023-03-13T08:30:17;98769.73;;;6.74;69.76
41467;BME280;27205;53.690;19.948;2023-03-13T08:35:20;98767.69;;;6.80;70.13
41467;BME280;27205;53.690;19.948;2023-03-13T08:40:24;98757.27;;;6.93;70.18
41467;BME280;27205;53.690;19.948;2023-03-13T08:45:27;98751.79;;;7.06;70.30
41467;BME280;27205;53.690;19.948;2023-03-13T08:50:31;98736.56;;;7.19;70.39
41467;BME280;27205;53.690;19.948;2023-03-13T08:55:34;98727.77;;;7.23;70.54
41467;BME280;27205;53.690;19.948;2023-03-13T09:00:38;98721.98;;;7.23;70.70
41467;BME280;27205;53.690;19.948;2023-03-13T09:05:42;98715.73;;;7.28;70.69
41467;BME280;27205;53.690;19.948;2023-03-13T09:11:00;98717.59;;;7.28;71.11
41467;BME280;27205;53.690;19.948;2023-03-13T09:16:09;98712.80;;;7.39;71.21
41467;BME280;27205;53.690;19.948;2023-03-13T09:21:19;98710.75;;;7.49;71.36
41467;BME280;27205;53.690;19.948;2023-03-13T09:26:24;98703.65;;;7.51;71.24
41467;BME280;27205;53.690;19.948;2023-03-13T09:31:30;98698.80;;;7.77;71.28
41467;BME280;27205;53.690;19.948;2023-03-13T09:36:34;98691.39;;;8.13;71.35
41467;BME280;27205;53.690;19.948;2023-03-13T09:41:42;98681.16;;;8.51;71.84
41467;BME280;27205;53.690;19.948;2023-03-13T09:52:16;98670.25;;;9.30;71.58
41467;BME280;27205;53.690;19.948;2023-03-13T10:02:44;98655.77;;;10.17;71.18
41467;BME280;27205;53.690;19.948;2023-03-13T10:07:49;98647.27;;;10.56;71.16
41467;BME280;27205;53.690;19.948;2023-03-13T10:12:57;98633.50;;;11.00;70.83
41467;BME280;27205;53.690;19.948;2023-03-13T10:18:15;98627.45;;;11.34;70.75
41467;BME280;27205;53.690;19.948;2023-03-13T10:23:24;98624.64;;;11.57;70.58
41467;BME280;27205;53.690;19.948;2023-03-13T10:28:29;98619.55;;;11.74;70.36
41467;BME280;27205;53.690;19.948;2023-03-13T10:33:33;98608.98;;;11.73;70.05
41467;BME280;27205;53.690;19.948;2023-03-13T10:43:51;98587.42;;;12.12;69.76
41467;BME280;27205;53.690;19.948;2023-03-13T10:48:56;98575.30;;;12.10;69.56
41467;BME280;27205;53.690;19.948;2023-03-13T10:54:18;98558.05;;;12.15;69.52
41467;BME280;27205;53.690;19.948;2023-03-13T10:59:25;98546.16;;;12.22;69.32
41467;BME280;27205;53.690;19.948;2023-03-13T11:04:34;98541.19;;;12.28;69.20
41467;BME280;27205;53.690;19.948;2023-03-13T11:09:39;98529.79;;;12.50;68.95
41467;BME280;27205;53.690;19.948;2023-03-13T11:14:44;98523.36;;;12.51;69.00
41467;BME280;27205;53.690;19.948;2023-03-13T11:35:06;98489.66;;;12.62;68.59
41467;BME280;27205;53.690;19.948;2023-03-13T11:46:13;98472.65;;;12.50;68.12
41467;BME280;27205;53.690;19.948;2023-03-13T11:57:13;98446.41;;;11.96;68.82
41467;BME280;27205;53.690;19.948;2023-03-13T12:02:36;98433.80;;;11.80;68.56
41467;BME280;27205;53.690;19.948;2023-03-13T12:13:04;98407.28;;;11.44;69.04
41467;BME280;27205;53.690;19.948;2023-03-13T12:23:49;98388.01;;;11.04;69.43
41467;BME280;27205;53.690;19.948;2023-03-13T12:34:12;98368.71;;;10.69;69.65
41467;BME280;27205;53.690;19.948;2023-03-13T12:39:42;98356.02;;;10.50;70.23
41467;BME280;27205;53.690;19.948;2023-03-13T12:44:45;98344.23;;;10.47;70.37
41467;BME280;27205;53.690;19.948;2023-03-13T13:00:24;98299.32;;;10.29;71.11
41467;BME280;27205;53.690;19.948;2023-03-13T13:05:29;98286.95;;;10.23;71.36
41467;BME280;27205;53.690;19.948;2023-03-13T13:10:32;98278.24;;;10.22;71.39
41467;BME280;27205;53.690;19.948;2023-03-13T13:15:43;98272.27;;;10.15;71.64
41467;BME280;27205;53.690;19.948;2023-03-13T13:36:54;98213.19;;;9.79;73.08
41467;BME280;27205;53.690;19.948;2023-03-13T13:41:57;98205.22;;;9.80;73.62
41467;BME280;27205;53.690;19.948;2023-03-13T13:47:01;98179.46;;;9.83;73.36
41467;BME280;27205;53.690;19.948;2023-03-13T13:57:14;98179.78;;;9.93;74.38
41467;BME280;27205;53.690;19.948;2023-03-13T14:02:56;98161.94;;;9.91;74.70
41467;BME280;27205;53.690;19.948;2023-03-13T14:08:05;98166.02;;;9.83;75.72
41467;BME280;27205;53.690;19.948;2023-03-13T14:13:16;98160.95;;;9.78;76.58
41467;BME280;27205;53.690;19.948;2023-03-13T14:18:28;98147.14;;;9.80;77.20
41467;BME280;27205;53.690;19.948;2023-03-13T14:23:33;98139.54;;;9.70;77.71
41467;BME280;27205;53.690;19.948;2023-03-13T14:28:44;98131.33;;;9.63;78.53
41467;BME280;27205;53.690;19.948;2023-03-13T14:33:48;98121.28;;;9.62;79.28
41467;BME280;27205;53.690;19.948;2023-03-13T14:44:04;98100.41;;;9.71;79.98
41467;BME280;27205;53.690;19.948;2023-03-13T14:49:17;98092.04;;;9.74;80.28
41467;BME280;27205;53.690;19.948;2023-03-13T14:59:28;98088.26;;;9.71;81.35
41467;BME280;27205;53.690;19.948;2023-03-13T15:05:28;98083.38;;;9.75;81.66
41467;BME280;27205;53.690;19.948;2023-03-13T15:10:34;98076.54;;;9.76;82.26
41467;BME280;27205;53.690;19.948;2023-03-13T15:15:42;98079.27;;;9.75;82.63
41467;BME280;27205;53.690;19.948;2023-03-13T15:20:55;98067.80;;;9.73;83.50
41467;BME280;27205;53.690;19.948;2023-03-13T15:25:59;98064.95;;;9.73;83.64
41467;BME280;27205;53.690;19.948;2023-03-13T15:31:03;98061.88;;;9.77;83.81
41467;BME280;27205;53.690;19.948;2023-03-13T15:36:07;98061.65;;;9.81;83.70
41467;BME280;27205;53.690;19.948;2023-03-13T15:41:11;98065.77;;;9.86;83.80
41467;BME280;27205;53.690;19.948;2023-03-13T15:46:14;98065.35;;;9.90;83.86
41467;BME280;27205;53.690;19.948;2023-03-13T15:51:18;98057.09;;;9.93;83.89
41467;BME280;27205;53.690;19.948;2023-03-13T15:56:23;98045.93;;;9.94;84.71
41467;BME280;27205;53.690;19.948;2023-03-13T16:01:31;98044.58;;;9.94;85.22
41467;BME280;27205;53.690;19.948;2023-03-13T16:06:36;98055.98;;;9.95;85.25
41467;BME280;27205;53.690;19.948;2023-03-13T16:11:39;98047.73;;;9.94;85.63
41467;BME280;27205;53.690;19.948;2023-03-13T16:16:43;98053.29;;;9.92;86.02
41467;BME280;27205;53.690;19.948;2023-03-13T16:21:46;98056.94;;;9.92;86.23
41467;BME280;27205;53.690;19.948;2023-03-13T16:26:53;98060.74;;;9.92;86.46
41467;BME280;27205;53.690;19.948;2023-03-13T16:31:57;98069.84;;;9.90;86.51
41467;BME280;27205;53.690;19.948;2023-03-13T16:37:01;98068.60;;;9.88;87.27
41467;BME280;27205;53.690;19.948;2023-03-13T16:42:04;98068.88;;;9.85;87.65
41467;BME280;27205;53.690;19.948;2023-03-13T16:47:19;98086.06;;;9.89;87.53
41467;BME280;27205;53.690;19.948;2023-03-13T16:52:23;98086.58;;;9.94;87.79
41467;BME280;27205;53.690;19.948;2023-03-13T16:57:26;98095.42;;;9.95;87.84
41467;BME280;27205;53.690;19.948;2023-03-13T17:02:30;98103.34;;;9.90;88.38
41467;BME280;27205;53.690;19.948;2023-03-13T17:07:33;98096.80;;;9.88;88.45
41467;BME280;27205;53.690;19.948;2023-03-13T17:12:37;98103.79;;;9.92;89.07
41467;BME280;27205;53.690;19.948;2023-03-13T17:17:40;98102.24;;;9.89;89.34
41467;BME280;27205;53.690;19.948;2023-03-13T17:22:48;98106.17;;;9.93;89.57
41467;BME280;27205;53.690;19.948;2023-03-13T17:27:51;98105.80;;;9.99;89.34
41467;BME280;27205;53.690;19.948;2023-03-13T17:32:56;98106.02;;;10.06;89.30
41467;BME280;27205;53.690;19.948;2023-03-13T17:38:01;98102.23;;;10.05;89.73
41467;BME280;27205;53.690;19.948;2023-03-13T17:43:04;98101.16;;;10.08;90.19
41467;BME280;27205;53.690;19.948;2023-03-13T17:48:11;98102.65;;;10.11;90.55
41467;BME280;27205;53.690;19.948;2023-03-13T17:53:15;98114.60;;;10.18;90.40
41467;BME280;27205;53.690;19.948;2023-03-13T17:58:18;98113.35;;;10.19;90.92
41467;BME280;27205;53.690;19.948;2023-03-13T18:03:21;98116.07;;;10.22;90.68
41467;BME280;27205;53.690;19.948;2023-03-13T18:08:25;98116.77;;;10.21;91.03
41467;BME280;27205;53.690;19.948;2023-03-13T18:13:29;98118.86;;;10.30;90.48
41467;BME280;27205;53.690;19.948;2023-03-13T18:18:32;98104.88;;;10.35;91.06
41467;BME280;27205;53.690;19.948;2023-03-13T18:23:36;98118.02;;;10.44;90.81
41467;BME280;27205;53.690;19.948;2023-03-13T18:28:39;98126.27;;;10.46;90.79
41467;BME280;27205;53.690;19.948;2023-03-13T18:33:43;98125.80;;;10.48;90.43
41467;BME280;27205;53.690;19.948;2023-03-13T18:38:47;98118.02;;;10.43;90.42
41467;BME280;27205;53.690;19.948;2023-03-13T18:43:51;98111.46;;;10.30;90.52
41467;BME280;27205;53.690;19.948;2023-03-13T18:48:55;98113.84;;;10.20;90.71
41467;BME280;27205;53.690;19.948;2023-03-13T18:53:58;98108.02;;;10.08;90.60
41467;BME280;27205;53.690;19.948;2023-03-13T18:59:01;98102.36;;;9.94;90.64
41467;BME280;27205;53.690;19.948;2023-03-13T19:04:05;98100.19;;;9.83;90.69
41467;BME280;27205;53.690;19.948;2023-03-13T19:09:14;98092.91;;;9.71;90.63
41467;BME280;27205;53.690;19.948;2023-03-13T19:14:38;98086.69;;;9.65;90.97
41467;BME280;27205;53.690;19.948;2023-03-13T19:19:41;98078.63;;;9.68;91.02
41467;BME280;27205;53.690;19.948;2023-03-13T19:24:45;98068.20;;;9.66;90.89
41467;BME280;27205;53.690;19.948;2023-03-13T19:29:48;98062.09;;;9.67;90.62
41467;BME280;27205;53.690;19.948;2023-03-13T19:34:52;98062.81;;;9.62;90.94
41467;BME280;27205;53.690;19.948;2023-03-13T19:39:55;98067.45;;;9.64;90.94
41467;BME280;27205;53.690;19.948;2023-03-13T19:44:59;98067.17;;;9.60;91.11
41467;BME280;27205;53.690;19.948;2023-03-13T19:50:03;98062.73;;;9.66;90.94
41467;BME280;27205;53.690;19.948;2023-03-13T19:55:07;98060.33;;;9.61;90.96
41467;BME280;27205;53.690;19.948;2023-03-13T20:00:19;98064.67;;;9.59;91.12
41467;BME280;27205;53.690;19.948;2023-03-13T20:05:24;98078.67;;;9.58;91.34
41467;BME280;27205;53.690;19.948;2023-03-13T20:10:29;98083.66;;;9.70;91.24
41467;BME280;27205;53.690;19.948;2023-03-13T20:15:32;98082.34;;;9.75;91.13
41467;BME280;27205;53.690;19.948;2023-03-13T20:20:36;98079.38;;;9.85;91.24
41467;BME280;27205;53.690;19.948;2023-03-13T20:25:39;98073.34;;;9.92;91.31
41467;BME280;27205;53.690;19.948;2023-03-13T20:30:43;98068.48;;;9.87;91.69
41467;BME280;27205;53.690;19.948;2023-03-13T20:35:47;98064.92;;;9.88;91.40
41467;BME280;27205;53.690;19.948;2023-03-13T20:40:52;98063.25;;;9.89;91.64
41467;BME280;27205;53.690;19.948;2023-03-13T20:45:56;98059.17;;;9.93;91.51
41467;BME280;27205;53.690;19.948;2023-03-13T20:51:01;98056.39;;;10.03;91.37
41467;BME280;27205;53.690;19.948;2023-03-13T20:56:05;98057.73;;;10.03;91.18
41467;BME280;27205;53.690;19.948;2023-03-13T21:01:09;98049.69;;;10.04;90.96
41467;BME280;27205;53.690;19.948;2023-03-13T21:06:16;98041.91;;;10.07;90.87
41467;BME280;27205;53.690;19.948;2023-03-13T21:11:21;98029.33;;;10.10;90.79
41467;BME280;27205;53.690;19.948;2023-03-13T21:16:24;98015.22;;;10.06;90.78
41467;BME280;27205;53.690;19.948;2023-03-13T21:21:29;98013.66;;;10.06;90.72
41467;BME280;27205;53.690;19.948;2023-03-13T21:26:33;98012.11;;;10.05;90.66
41467;BME280;27205;53.690;19.948;2023-03-13T21:31:37;98016.86;;;10.13;90.76
41467;BME280;27205;53.690;19.948;2023-03-13T21:36:41;98003.23;;;10.27;90.00
41467;BME280;27205;53.690;19.948;2023-03-13T21:41:44;97983.89;;;10.32;89.91
41467;BME280;27205;53.690;19.948;2023-03-13T21:46:48;97968.91;;;10.33;89.70
41467;BME280;27205;53.690;19.948;2023-03-13T21:51:51;97976.79;;;10.36;89.64
41467;BME280;27205;53.690;19.948;2023-03-13T21:56:55;97982.02;;;10.38;89.55
41467;BME280;27205;53.690;19.948;2023-03-13T22:01:59;97999.39;;;10.42;89.48
41467;BME280;27205;53.690;19.948;2023-03-13T22:07:02;97999.33;;;10.42;89.91
41467;BME280;27205;53.690;19.948;2023-03-13T22:12:06;97992.20;;;10.46;89.94
41467;BME280;27205;53.690;19.948;2023-03-13T22:17:09;97987.34;;;10.46;90.10
41467;BME280;27205;53.690;19.948;2023-03-13T22:22:19;97982.23;;;10.62;89.83
41467;BME280;27205;53.690;19.948;2023-03-13T22:27:24;97967.56;;;10.66;89.56
41467;BME280;27205;53.690;19.948;2023-03-13T22:32:27;97978.24;;;10.69;89.69
41467;BME280;27205;53.690;19.948;2023-03-13T22:37:32;97985.30;;;10.78;89.39
41467;BME280;27205;53.690;19.948;2023-03-13T22:42:35;97981.55;;;10.82;89.14
41467;BME280;27205;53.690;19.948;2023-03-13T22:47:39;97968.00;;;10.90;89.08
41467;BME280;27205;53.690;19.948;2023-03-13T22:52:42;97943.67;;;10.96;88.77
41467;BME280;27205;53.690;19.948;2023-03-13T22:57:46;97924.16;;;11.03;88.50
41467;BME280;27205;53.690;19.948;2023-03-13T23:02:50;97912.70;;;11.05;88.56
41467;BME280;27205;53.690;19.948;2023-03-13T23:07:53;97890.02;;;11.04;88.23
41467;BME280;27205;53.690;19.948;2023-03-13T23:12:57;97876.13;;;11.07;87.97
41467;BME280;27205;53.690;19.948;2023-03-13T23:18:00;97870.77;;;11.11;87.89
41467;BME280;27205;53.690;19.948;2023-03-13T23:23:04;97862.98;;;11.13;88.33
41467;BME280;27205;53.690;19.948;2023-03-13T23:28:07;97861.80;;;11.17;88.16
41467;BME280;27205;53.690;19.948;2023-03-13T23:33:11;97862.88;;;11.23;88.15
41467;BME280;27205;53.690;19.948;2023-03-13T23:38:14;97869.54;;;11.26;88.07
41467;BME280;27205;53.690;19.948;2023-03-13T23:43:20;97869.30;;;11.35;87.68
41467;BME280;27205;53.690;19.948;2023-03-13T23:48:24;97872.67;;;11.41;87.48
41467;BME280;27205;53.690;19.948;2023-03-13T23:53:27;97867.30;;;11.37;87.50
41467;BME280;27205;53.690;19.948;2023-03-13T23:58:31;97879.11;;;11.32;87.29
